Monticello Municipal Ellis Field
KLLQ : rendu visible

Aérodrome :











RETROUVEZ-NOUS SUR...

 
LOGIN :

S'inscrire | Disclaimer

   EN    FR    IT 

 









Légende :    VFR   VFR Marginal   IFR   IFR Intensif   IFR Très Intensif
Visi : 
Plafond : 
>= 8 km
>= 3000ft
5 à 8 km
1000 à 3000 ft
1500m à 5 km
500 à 1000 ft
800 à 1500m
200 à 500 ft
< 800m
< 200 ft
Symboles :   Orages  Brouillard  Fortes neiges  Fortes précipitations  Vent > 20 kt






- Altitude de l'aérodrome : 270 ft


KLLQ - Monticello Municipal Ellis Field

DERNIER METAR :
  • 221553Z AUTO 08010KT 10SM OVC008 19/17 A3017 RMK AO2 CIG 006V011 SLP214 T01890167

METARs EXPIRÉS :
  • 221453Z AUTO 09007KT 10SM BKN007 BKN050 OVC075 18/17 A3018 RMK AO2 CIG 005V010 SLP216 T01830167 53003
  • 221419Z AUTO 07009KT 10SM SCT008 BKN048 OVC075 18/17 A3017 RMK AO2 T01780167
  • 221407Z AUTO 07008KT 10SM BKN007 BKN048 OVC075 18/17 A3017 RMK AO2 CIG 005V010 T01780167
  • 221353Z AUTO 07010KT 10SM BKN006 BKN048 OVC075 18/17 A3017 RMK AO2 CIG 005V010 SLP213 T01780167

TAF KLLQ
Valide du 22 à 12h jusqu'au 23 à 12h UTC


221125Z 2212/2312 07005KT P6SM VCSH BKN030 OVC050
FM221500 08007KT 2SM -SHRA BR OVC025
FM230700 05003KT 4SM SHRA BR OVC015
FIR KZME / Amérique du Nord



MET'MAP, la Météo Aéronautique d'un coup d'oeil ! - Copyright ORBIFLY Décembre 2007 - Disclaimer

ORBIFLY MET'MAP TEAM :

Programmation & Développement : Alexandra Zaïnal
Sur une idée originale de : Baudouin d'Aumeries
Assistance à la programmation : Marc-Olivier Méhu
Soutien technique & logistique : Manuel Goepfert

Contact : metmap@orbifly.com




SOURCES & CREDITS :

   NOAA       Earth
Advisory